createdAt,value
2019-03-24T00:00:21.958Z,54.98
2019-03-24T00:01:21.956Z,54.68
2019-03-24T00:02:21.959Z,55.08
2019-03-24T00:03:21.930Z,55.18
2019-03-24T00:04:21.925Z,54.78
2019-03-24T00:05:21.904Z,55.08
2019-03-24T00:06:21.901Z,54.98
2019-03-24T00:07:21.921Z,54.78
2019-03-24T00:08:21.984Z,54.88
2019-03-24T00:09:21.968Z,54.58
2019-03-24T00:10:21.856Z,54.68
2019-03-24T00:11:21.840Z,54.78
2019-03-24T00:12:21.850Z,54.48
2019-03-24T00:13:21.824Z,54.80
2019-03-24T00:14:21.807Z,54.68
2019-03-24T00:15:26.297Z,54.80
2019-03-24T00:16:21.790Z,54.78
2019-03-24T00:17:21.789Z,54.80
2019-03-24T00:18:21.768Z,54.58
2019-03-24T00:19:21.758Z,54.80
2019-03-24T00:20:21.752Z,54.71
2019-03-24T00:21:21.737Z,54.80
2019-03-24T00:22:21.753Z,54.80
2019-03-24T00:23:21.714Z,54.71
2019-03-24T00:24:21.705Z,54.71
2019-03-24T00:25:21.704Z,54.71
2019-03-24T00:26:23.450Z,54.60
2019-03-24T00:27:21.703Z,55.00
2019-03-24T00:28:21.657Z,54.60
2019-03-24T00:29:21.644Z,54.71
2019-03-24T00:30:21.635Z,54.91
2019-03-24T00:31:21.626Z,54.71
2019-03-24T00:32:21.631Z,54.60
2019-03-24T00:33:21.604Z,54.71
2019-03-24T00:34:21.588Z,54.71
2019-03-24T00:35:21.583Z,54.80
2019-03-24T00:36:21.572Z,54.60
2019-03-24T00:37:21.571Z,54.60
2019-03-24T00:38:21.543Z,55.21
2019-03-24T00:39:21.538Z,55.21
2019-03-24T00:40:21.532Z,54.60
2019-03-24T00:41:21.523Z,55.31
2019-03-24T00:42:21.524Z,54.73
2019-03-24T00:43:21.496Z,54.50
2019-03-24T00:44:21.484Z,54.80
2019-03-24T00:45:21.475Z,54.71
2019-03-24T00:46:21.473Z,54.71
2019-03-24T00:47:21.477Z,54.71
2019-03-24T00:48:21.472Z,54.80
2019-03-24T00:49:21.425Z,54.80
2019-03-24T00:50:21.417Z,54.71
2019-03-24T00:51:21.407Z,54.83
2019-03-24T00:52:21.414Z,54.60
2019-03-24T00:53:21.385Z,54.60
2019-03-24T00:54:21.392Z,54.80
2019-03-24T00:55:21.370Z,55.00
2019-03-24T00:56:21.352Z,55.00
2019-03-24T00:57:21.353Z,55.41
2019-03-24T00:58:21.331Z,55.00
2019-03-24T00:59:21.322Z,55.31
2019-03-24T01:00:21.309Z,54.93
2019-03-24T01:01:21.299Z,54.93
2019-03-24T01:02:21.304Z,55.00
2019-03-24T01:03:21.286Z,54.93
2019-03-24T01:04:21.267Z,55.00
2019-03-24T01:05:21.256Z,54.91
2019-03-24T01:06:21.256Z,54.63
2019-03-24T01:07:21.286Z,55.03
2019-03-24T01:08:21.224Z,55.21
2019-03-24T01:09:21.210Z,55.61
2019-03-24T01:10:21.205Z,55.13
2019-03-24T01:11:21.193Z,54.33
2019-03-24T01:12:21.331Z,54.71
2019-03-24T01:13:21.173Z,54.08
2019-03-24T01:14:21.167Z,53.27
2019-03-24T01:15:21.154Z,52.32
2019-03-24T01:16:21.152Z,51.99
2019-03-24T01:17:21.163Z,50.74
2019-03-24T01:18:21.125Z,49.11
2019-03-24T01:19:21.109Z,49.29
2019-03-24T01:20:21.097Z,48.57
2019-03-24T01:21:21.083Z,48.44
2019-03-24T01:22:21.073Z,47.52
2019-03-24T01:23:21.087Z,46.80
2019-03-24T01:24:21.055Z,46.39
2019-03-24T01:25:21.046Z,45.87
2019-03-24T01:26:21.043Z,45.87
2019-03-24T01:27:21.023Z,45.77
2019-03-24T01:28:21.026Z,45.65
2019-03-24T01:29:20.999Z,45.45
2019-03-24T01:30:20.986Z,44.93
2019-03-24T01:31:20.977Z,44.41
2019-03-24T01:32:20.967Z,44.81
2019-03-24T01:33:20.972Z,43.61
2019-03-24T01:34:20.946Z,43.49
2019-03-24T01:35:20.945Z,43.69
2019-03-24T01:36:20.923Z,43.69
2019-03-24T01:37:20.912Z,42.67
2019-03-24T01:38:20.925Z,42.97
2019-03-24T01:39:20.891Z,43.37
2019-03-24T01:40:20.888Z,42.18
2019-03-24T01:41:20.871Z,42.57
2019-03-24T01:42:20.861Z,41.97
2019-03-24T01:43:20.867Z,42.45
2019-03-24T01:44:20.840Z,41.66
2019-03-24T01:45:20.827Z,41.46
2019-03-24T01:46:20.873Z,41.53
2019-03-24T01:47:20.805Z,41.03
2019-03-24T01:48:20.814Z,41.61
2019-03-24T01:49:20.789Z,41.52
2019-03-24T01:50:20.777Z,40.82
2019-03-24T01:51:20.765Z,41.30
2019-03-24T01:52:20.757Z,41.30
2019-03-24T01:53:20.759Z,40.40
2019-03-24T01:54:20.731Z,40.60
2019-03-24T01:55:20.723Z,40.60
2019-03-24T01:56:20.713Z,40.60
2019-03-24T01:57:20.719Z,40.80
2019-03-24T01:58:20.705Z,40.60
2019-03-24T01:59:20.683Z,40.60
2019-03-24T02:00:20.669Z,40.60
2019-03-24T02:01:20.660Z,40.40
2019-03-24T02:02:20.653Z,40.62
2019-03-24T02:03:20.654Z,40.70
2019-03-24T02:04:20.624Z,40.92
2019-03-24T02:05:20.621Z,40.62
2019-03-24T02:06:20.608Z,40.42
2019-03-24T02:07:20.605Z,41.22
2019-03-24T02:08:20.609Z,40.42
2019-03-24T02:09:20.576Z,41.33
2019-03-24T02:10:20.575Z,41.33
2019-03-24T02:11:20.559Z,40.64
2019-03-24T02:12:20.552Z,41.03
2019-03-24T02:13:20.530Z,41.44
2019-03-24T02:14:20.540Z,41.53
2019-03-24T02:15:20.553Z,41.46
2019-03-24T02:16:20.500Z,41.55
2019-03-24T02:17:20.498Z,41.16
2019-03-24T02:18:20.479Z,41.46
2019-03-24T02:19:20.498Z,41.67
2019-03-24T02:20:20.469Z,41.97
2019-03-24T02:21:20.449Z,41.77
2019-03-24T02:22:20.435Z,41.77
2019-03-24T02:23:20.425Z,41.28
2019-03-24T02:24:20.433Z,41.60
2019-03-24T02:25:20.401Z,41.99
2019-03-24T02:26:20.396Z,41.99
2019-03-24T02:27:20.383Z,42.59
2019-03-24T02:28:20.371Z,42.32
2019-03-24T02:29:20.375Z,42.21
2019-03-24T02:30:20.355Z,42.13
2019-03-24T02:31:20.342Z,42.91
2019-03-24T02:32:20.331Z,43.73
2019-03-24T02:33:20.322Z,43.23
2019-03-24T02:34:20.323Z,43.33
2019-03-24T02:35:20.299Z,43.03
2019-03-24T02:36:20.288Z,43.05
2019-03-24T02:37:20.275Z,43.25
2019-03-24T02:38:20.275Z,43.95
2019-03-24T02:39:20.295Z,44.05
2019-03-24T02:40:20.246Z,44.25
2019-03-24T02:41:20.247Z,44.27
2019-03-24T02:42:20.233Z,43.57
2019-03-24T02:43:20.250Z,43.37
2019-03-24T02:44:20.235Z,44.27
2019-03-24T02:45:20.193Z,44.78
2019-03-24T02:46:24.493Z,44.57
2019-03-24T02:47:20.172Z,44.20
2019-03-24T02:48:20.165Z,44.39
2019-03-24T02:49:20.168Z,44.20
2019-03-24T02:50:20.141Z,44.49
2019-03-24T02:51:20.143Z,44.20
2019-03-24T02:52:20.122Z,44.20
2019-03-24T02:53:20.112Z,44.29
2019-03-24T02:54:20.125Z,44.39
2019-03-24T02:55:20.090Z,44.49
2019-03-24T02:56:20.076Z,44.39
2019-03-24T02:57:20.064Z,44.20
2019-03-24T02:58:20.053Z,44.79
2019-03-24T02:59:20.048Z,44.49
2019-03-24T03:00:20.049Z,44.49
2019-03-24T03:01:20.029Z,44.39
2019-03-24T03:02:20.015Z,44.70
2019-03-24T03:03:19.999Z,44.70
2019-03-24T03:04:19.994Z,44.70
2019-03-24T03:05:19.996Z,44.89
2019-03-24T03:06:19.973Z,44.39
2019-03-24T03:07:19.963Z,44.89
2019-03-24T03:08:19.960Z,44.20
2019-03-24T03:09:19.942Z,44.21
2019-03-24T03:10:19.954Z,44.32
2019-03-24T03:11:19.921Z,44.71
2019-03-24T03:12:19.909Z,43.91
2019-03-24T03:13:19.904Z,44.21
2019-03-24T03:14:19.893Z,45.24
2019-03-24T03:15:19.922Z,45.14
2019-03-24T03:16:19.875Z,44.84
2019-03-24T03:17:19.861Z,45.14
2019-03-24T03:18:19.860Z,45.94
2019-03-24T03:19:19.835Z,45.94
2019-03-24T03:20:19.841Z,45.34
2019-03-24T03:21:19.819Z,45.76
2019-03-24T03:22:19.810Z,45.46
2019-03-24T03:23:19.791Z,45.26
2019-03-24T03:24:19.797Z,45.43
2019-03-24T03:25:19.794Z,45.36
2019-03-24T03:26:19.764Z,46.06
2019-03-24T03:27:19.756Z,46.36
2019-03-24T03:28:19.738Z,45.76
2019-03-24T03:29:19.731Z,45.88
2019-03-24T03:30:19.752Z,46.28
2019-03-24T03:31:19.722Z,46.16
2019-03-24T03:32:19.712Z,45.98
2019-03-24T03:33:19.691Z,46.08
2019-03-24T03:34:19.693Z,45.88
2019-03-24T03:35:19.706Z,45.78
2019-03-24T03:36:19.680Z,45.98
2019-03-24T03:37:19.656Z,46.28
2019-03-24T03:38:19.638Z,46.78
2019-03-24T03:39:19.623Z,46.18
2019-03-24T03:40:19.683Z,45.98
2019-03-24T03:41:19.603Z,46.06
2019-03-24T03:42:19.602Z,45.56
2019-03-24T03:43:19.582Z,45.74
2019-03-24T03:44:19.574Z,45.12
2019-03-24T03:45:19.591Z,44.21
2019-03-24T03:46:19.551Z,44.71
2019-03-24T03:47:19.539Z,44.27
2019-03-24T03:48:19.545Z,43.27
2019-03-24T03:49:19.528Z,43.37
2019-03-24T03:50:19.513Z,43.05
2019-03-24T03:51:19.512Z,42.05
2019-03-24T03:52:19.493Z,42.55
2019-03-24T03:53:19.480Z,41.53
2019-03-24T03:54:19.477Z,41.91
2019-03-24T03:55:19.452Z,41.82
2019-03-24T03:56:19.466Z,41.71
2019-03-24T03:57:19.431Z,41.22
2019-03-24T03:58:19.434Z,41.52
2019-03-24T03:59:19.412Z,41.61
2019-03-24T04:00:19.404Z,41.60
2019-03-24T04:01:19.402Z,41.30
2019-03-24T04:02:19.381Z,41.50
2019-03-24T04:03:19.377Z,41.30
2019-03-24T04:04:19.367Z,41.28
2019-03-24T04:05:19.356Z,40.48
2019-03-24T04:06:19.354Z,40.18
2019-03-24T04:07:19.332Z,40.10
2019-03-24T04:08:19.316Z,40.38
2019-03-24T04:09:19.307Z,40.78
2019-03-24T04:10:19.296Z,40.58
2019-03-24T04:11:19.303Z,40.38
2019-03-24T04:12:19.273Z,40.40
2019-03-24T04:13:19.274Z,40.50
2019-03-24T04:14:19.280Z,41.61
2019-03-24T04:15:19.243Z,41.22
2019-03-24T04:16:19.254Z,41.22
2019-03-24T04:17:19.227Z,41.93
2019-03-24T04:18:19.219Z,41.93
2019-03-24T04:19:19.204Z,41.46
2019-03-24T04:20:19.194Z,42.05
2019-03-24T04:21:19.195Z,42.87
2019-03-24T04:22:19.171Z,41.97
2019-03-24T04:23:19.159Z,42.27
2019-03-24T04:24:19.150Z,42.38
2019-03-24T04:25:19.139Z,43.09
2019-03-24T04:26:19.161Z,43.29
2019-03-24T04:27:19.120Z,43.40
2019-03-24T04:28:19.108Z,43.32
2019-03-24T04:29:19.096Z,43.51
2019-03-24T04:30:19.088Z,43.41
2019-03-24T04:31:19.413Z,43.71
2019-03-24T04:32:19.076Z,43.82
2019-03-24T04:33:19.664Z,43.32
2019-03-24T04:34:19.047Z,44.24
2019-03-24T04:35:19.034Z,44.24
2019-03-24T04:36:19.039Z,43.74
2019-03-24T04:37:19.012Z,43.74
2019-03-24T04:38:19.022Z,44.54
2019-03-24T04:39:18.992Z,44.43
2019-03-24T04:40:18.981Z,43.63
2019-03-24T04:41:18.983Z,43.63
2019-03-24T04:42:18.960Z,44.54
2019-03-24T04:43:18.952Z,44.56
2019-03-24T04:44:18.937Z,44.56
2019-03-24T04:45:18.926Z,44.43
2019-03-24T04:46:18.932Z,44.66
2019-03-24T04:47:18.906Z,44.76
2019-03-24T04:48:18.894Z,44.76
2019-03-24T04:49:18.888Z,44.26
2019-03-24T04:50:18.876Z,44.76
2019-03-24T04:51:18.885Z,44.35
2019-03-24T04:52:18.856Z,44.56
2019-03-24T04:53:20.674Z,44.26
2019-03-24T04:54:18.835Z,44.86
2019-03-24T04:55:18.824Z,44.66
2019-03-24T04:56:18.832Z,44.96
2019-03-24T04:57:18.802Z,44.35
2019-03-24T04:58:18.791Z,44.26
2019-03-24T04:59:18.783Z,44.26
2019-03-24T05:00:18.770Z,44.26
2019-03-24T05:01:18.776Z,44.56
2019-03-24T05:02:18.744Z,44.46
2019-03-24T05:03:18.737Z,44.86
2019-03-24T05:04:18.732Z,44.66
2019-03-24T05:05:18.719Z,44.35
2019-03-24T05:06:18.726Z,44.76
2019-03-24T05:07:18.702Z,44.86
2019-03-24T05:08:18.687Z,44.66
2019-03-24T05:09:18.672Z,44.56
2019-03-24T05:10:18.668Z,44.38
2019-03-24T05:11:18.671Z,44.68
2019-03-24T05:12:18.651Z,44.56
2019-03-24T05:13:18.642Z,44.58
2019-03-24T05:14:18.622Z,44.28
2019-03-24T05:15:18.607Z,44.48
2019-03-24T05:16:18.622Z,44.28
2019-03-24T05:17:26.696Z,44.68
2019-03-24T05:18:19.581Z,44.26
2019-03-24T05:19:18.574Z,44.28
2019-03-24T05:20:18.562Z,44.48
2019-03-24T05:21:18.561Z,44.68
2019-03-24T05:22:18.538Z,44.28
2019-03-24T05:23:18.532Z,44.48
2019-03-24T05:24:18.519Z,44.48
2019-03-24T05:25:18.503Z,45.08
2019-03-24T05:26:18.514Z,44.48
2019-03-24T05:27:18.485Z,45.18
2019-03-24T05:28:18.475Z,44.98
2019-03-24T05:29:18.467Z,45.38
2019-03-24T05:30:18.452Z,44.08
2019-03-24T05:31:18.465Z,45.08
2019-03-24T05:32:18.439Z,45.08
2019-03-24T05:33:18.424Z,45.00
2019-03-24T05:34:18.413Z,45.60
2019-03-24T05:35:18.407Z,45.30
2019-03-24T05:36:18.402Z,45.70
2019-03-24T05:37:18.389Z,45.60
2019-03-24T05:38:18.367Z,46.00
2019-03-24T05:39:18.359Z,45.70
2019-03-24T05:40:18.349Z,45.70
2019-03-24T05:41:18.352Z,45.62
2019-03-24T05:42:18.336Z,45.83
2019-03-24T05:43:18.322Z,45.83
2019-03-24T05:44:18.304Z,45.42
2019-03-24T05:45:18.298Z,45.30
2019-03-24T05:46:18.304Z,45.32
2019-03-24T05:47:18.278Z,45.32
2019-03-24T05:48:18.267Z,45.80
2019-03-24T05:49:18.254Z,45.50
2019-03-24T05:50:18.243Z,45.60
2019-03-24T05:51:18.263Z,44.98
2019-03-24T05:52:18.231Z,44.58
2019-03-24T05:53:18.211Z,44.96
2019-03-24T05:54:18.202Z,43.85
2019-03-24T05:55:18.189Z,43.85
2019-03-24T05:56:18.187Z,43.54
2019-03-24T05:57:18.187Z,43.41
2019-03-24T05:58:18.157Z,42.11
2019-03-24T05:59:18.155Z,41.99
2019-03-24T06:00:18.149Z,41.80
2019-03-24T06:01:18.127Z,41.88
2019-03-24T06:02:18.141Z,41.27
2019-03-24T06:03:18.106Z,41.47
2019-03-24T06:04:18.097Z,41.46
2019-03-24T06:05:18.083Z,41.25
2019-03-24T06:06:18.075Z,41.14
2019-03-24T06:07:18.084Z,40.73
2019-03-24T06:08:18.055Z,41.53
2019-03-24T06:09:18.039Z,40.83
2019-03-24T06:10:18.030Z,40.42
2019-03-24T06:11:18.031Z,40.72
2019-03-24T06:12:18.037Z,40.22
2019-03-24T06:13:18.003Z,40.59
2019-03-24T06:14:17.993Z,40.70
2019-03-24T06:15:17.979Z,40.89
2019-03-24T06:16:17.971Z,40.30
2019-03-24T06:17:17.972Z,39.42
2019-03-24T06:18:17.949Z,40.81
2019-03-24T06:19:17.940Z,40.53
2019-03-24T06:20:18.021Z,41.24
2019-03-24T06:21:17.919Z,41.66
2019-03-24T06:22:17.925Z,41.38
2019-03-24T06:23:17.897Z,41.27
2019-03-24T06:24:17.885Z,41.58
2019-03-24T06:25:17.872Z,42.10
2019-03-24T06:26:17.862Z,42.40
2019-03-24T06:27:17.875Z,42.19
2019-03-24T06:28:17.846Z,42.82
2019-03-24T06:29:17.846Z,43.62
2019-03-24T06:30:17.827Z,43.63
2019-03-24T06:31:17.807Z,43.43
2019-03-24T06:32:17.800Z,43.84
2019-03-24T06:33:17.815Z,44.24
2019-03-24T06:34:17.783Z,44.26
2019-03-24T06:35:17.774Z,44.16
2019-03-24T06:36:17.763Z,43.85
2019-03-24T06:37:17.758Z,44.16
2019-03-24T06:38:17.747Z,44.76
2019-03-24T06:39:17.736Z,43.85
2019-03-24T06:40:19.739Z,44.46
2019-03-24T06:41:17.707Z,44.26
2019-03-24T06:42:17.695Z,45.16
2019-03-24T06:43:17.711Z,45.28
2019-03-24T06:44:17.676Z,45.88
2019-03-24T06:45:27.734Z,44.98
2019-03-24T06:46:18.652Z,45.78
2019-03-24T06:47:17.647Z,45.58
2019-03-24T06:48:17.664Z,45.68
2019-03-24T06:49:17.623Z,45.38
2019-03-24T06:50:17.615Z,45.68
2019-03-24T06:51:17.597Z,46.08
2019-03-24T06:52:17.591Z,45.88
2019-03-24T06:53:17.594Z,46.28
2019-03-24T06:54:17.585Z,46.00
2019-03-24T06:55:17.574Z,46.00
2019-03-24T06:56:17.548Z,46.20
2019-03-24T06:57:17.556Z,46.30
2019-03-24T06:58:17.542Z,46.81
2019-03-24T06:59:17.524Z,46.91
2019-03-24T07:00:17.508Z,47.00
2019-03-24T07:01:17.508Z,47.53
2019-03-24T07:02:17.485Z,47.03
2019-03-24T07:03:17.505Z,47.53
2019-03-24T07:04:17.461Z,47.63
2019-03-24T07:05:17.455Z,47.93
2019-03-24T07:06:17.440Z,47.23
2019-03-24T07:07:17.435Z,48.33
2019-03-24T07:08:18.233Z,48.25
2019-03-24T07:09:17.424Z,48.96
2019-03-24T07:10:17.403Z,48.86
2019-03-24T07:11:17.425Z,49.26
2019-03-24T07:12:17.383Z,49.16
2019-03-24T07:13:17.380Z,48.66
2019-03-24T07:14:17.380Z,48.75
2019-03-24T07:15:17.348Z,48.35
2019-03-24T07:16:18.539Z,48.55
2019-03-24T07:17:17.327Z,48.98
2019-03-24T07:18:17.319Z,49.16
2019-03-24T07:19:17.346Z,49.68
2019-03-24T07:20:17.336Z,49.26
2019-03-24T07:21:17.320Z,49.08
2019-03-24T07:22:17.273Z,49.08
2019-03-24T07:23:17.266Z,49.78
2019-03-24T07:24:17.269Z,49.58
2019-03-24T07:25:17.237Z,49.58
2019-03-24T07:26:17.232Z,49.78
2019-03-24T07:27:17.219Z,49.51
2019-03-24T07:28:17.220Z,50.91
2019-03-24T07:29:17.213Z,56.03
2019-03-24T07:30:17.188Z,58.42
2019-03-24T07:31:17.179Z,54.40
2019-03-24T07:32:17.174Z,53.59
2019-03-24T07:33:17.154Z,54.00
2019-03-24T07:34:17.172Z,54.22
2019-03-24T07:35:18.349Z,53.82
2019-03-24T07:36:17.124Z,53.82
2019-03-24T07:37:17.114Z,53.42
2019-03-24T07:38:17.117Z,53.72
2019-03-24T07:39:17.093Z,53.62
2019-03-24T07:40:17.153Z,53.12
2019-03-24T07:41:17.078Z,53.22
2019-03-24T07:42:17.065Z,53.00
2019-03-24T07:43:17.050Z,52.42
2019-03-24T07:44:17.044Z,52.51
2019-03-24T07:45:17.047Z,51.61
2019-03-24T07:46:17.029Z,52.92
2019-03-24T07:47:17.014Z,51.61
2019-03-24T07:48:19.409Z,51.61
2019-03-24T07:49:17.099Z,52.12
2019-03-24T07:50:17.082Z,53.12
2019-03-24T07:51:16.979Z,52.22
2019-03-24T07:52:16.958Z,52.12
2019-03-24T07:53:16.944Z,51.92
2019-03-24T07:54:17.049Z,51.99
2019-03-24T07:55:17.206Z,51.99
2019-03-24T07:56:17.189Z,51.97
2019-03-24T07:57:17.086Z,51.26
2019-03-24T07:58:16.893Z,49.13
2019-03-24T07:59:17.378Z,50.44
2019-03-24T08:00:17.042Z,49.71
2019-03-24T08:01:16.875Z,49.61
2019-03-24T08:02:16.929Z,49.41
2019-03-24T08:03:17.049Z,48.79
2019-03-24T08:04:16.844Z,48.76
2019-03-24T08:05:16.829Z,49.24
2019-03-24T08:06:16.821Z,48.36
2019-03-24T08:07:16.796Z,47.34
2019-03-24T08:08:16.785Z,47.22
2019-03-24T08:09:16.796Z,46.72
2019-03-24T08:10:16.765Z,46.80
2019-03-24T08:11:16.766Z,45.69
2019-03-24T08:12:16.745Z,46.30
2019-03-24T08:13:16.733Z,46.69
2019-03-24T08:14:16.805Z,45.89
2019-03-24T08:15:16.707Z,45.09
2019-03-24T08:16:16.702Z,46.00
2019-03-24T08:17:16.690Z,45.89
2019-03-24T08:18:16.674Z,46.30
2019-03-24T08:19:16.688Z,45.29
2019-03-24T08:20:16.658Z,45.59
2019-03-24T08:21:16.644Z,46.00
2019-03-24T08:22:16.640Z,45.69
2019-03-24T08:23:16.622Z,45.57
2019-03-24T08:24:16.646Z,45.09
2019-03-24T08:25:19.008Z,46.39
2019-03-24T08:26:16.602Z,45.79
2019-03-24T08:27:16.583Z,45.59
2019-03-24T08:28:16.578Z,46.30
2019-03-24T08:29:16.581Z,46.12
2019-03-24T08:30:16.577Z,45.62
2019-03-24T08:31:16.542Z,46.01
2019-03-24T08:32:16.533Z,45.51
2019-03-24T08:33:16.525Z,43.51
2019-03-24T08:34:16.511Z,43.99
2019-03-24T08:35:16.531Z,43.79
2019-03-24T08:36:16.496Z,44.29
2019-03-24T08:37:16.483Z,43.59
2019-03-24T08:38:16.467Z,44.29
2019-03-24T08:39:16.463Z,43.09
2019-03-24T08:40:16.469Z,44.12
2019-03-24T08:41:16.439Z,43.91
2019-03-24T08:42:16.431Z,43.91
2019-03-24T08:43:16.416Z,43.82
2019-03-24T08:44:16.406Z,44.62
2019-03-24T08:45:16.419Z,44.82
2019-03-24T08:46:16.380Z,44.93
2019-03-24T08:47:16.393Z,44.24
2019-03-24T08:48:16.362Z,44.54
2019-03-24T08:49:16.366Z,45.54
2019-03-24T08:50:16.357Z,45.26
2019-03-24T08:51:16.333Z,45.36
2019-03-24T08:52:16.335Z,45.26
2019-03-24T08:53:16.310Z,46.46
2019-03-24T08:54:16.302Z,46.06
2019-03-24T08:55:16.298Z,45.96
2019-03-24T08:56:16.286Z,46.56
2019-03-24T08:57:16.264Z,46.96
2019-03-24T08:58:16.263Z,46.46
2019-03-24T08:59:16.251Z,46.86
2019-03-24T09:00:16.252Z,46.76
2019-03-24T09:01:16.225Z,46.76
2019-03-24T09:02:16.217Z,46.88
2019-03-24T09:03:16.206Z,46.66
2019-03-24T09:04:16.200Z,47.78
2019-03-24T09:05:16.198Z,47.38
2019-03-24T09:06:16.174Z,47.58
2019-03-24T09:07:16.163Z,46.98
2019-03-24T09:08:16.152Z,46.68
2019-03-24T09:09:16.146Z,45.98
2019-03-24T09:10:16.147Z,46.78
2019-03-24T09:11:16.129Z,46.08
2019-03-24T09:12:16.120Z,46.68
2019-03-24T09:13:16.098Z,46.78
2019-03-24T09:14:16.087Z,46.68
2019-03-24T09:15:16.090Z,46.98
2019-03-24T09:16:16.069Z,46.68
2019-03-24T09:17:16.057Z,47.28
2019-03-24T09:18:16.051Z,47.28
2019-03-24T09:19:16.036Z,46.98
2019-03-24T09:20:16.036Z,47.20
2019-03-24T09:21:16.013Z,47.00
2019-03-24T09:22:16.006Z,47.41
2019-03-24T09:23:15.988Z,47.31
2019-03-24T09:24:15.983Z,46.70
2019-03-24T09:25:16.007Z,47.81
2019-03-24T09:26:15.958Z,47.41
2019-03-24T09:27:15.958Z,47.20
2019-03-24T09:28:15.951Z,46.70
2019-03-24T09:29:15.933Z,47.11
2019-03-24T09:30:15.934Z,46.91
2019-03-24T09:31:15.915Z,47.00
2019-03-24T09:32:15.897Z,46.91
2019-03-24T09:33:15.885Z,46.50
2019-03-24T09:34:15.882Z,46.62
2019-03-24T09:35:15.913Z,46.91
2019-03-24T09:36:15.873Z,45.92
2019-03-24T09:37:15.843Z,46.11
2019-03-24T09:38:15.836Z,46.20
2019-03-24T09:39:15.825Z,45.42
2019-03-24T09:40:15.812Z,45.83
2019-03-24T09:41:15.818Z,44.72
2019-03-24T09:42:15.794Z,44.52
2019-03-24T09:43:15.779Z,43.72
2019-03-24T09:44:15.772Z,43.72
2019-03-24T09:45:15.758Z,44.22
2019-03-24T09:46:15.783Z,43.62
2019-03-24T09:47:15.753Z,43.72
2019-03-24T09:48:15.733Z,44.32
2019-03-24T09:49:15.720Z,43.72
2019-03-24T09:50:15.708Z,44.22
2019-03-24T09:51:15.718Z,44.02
2019-03-24T09:52:15.689Z,44.02
2019-03-24T09:53:15.677Z,44.02
2019-03-24T09:54:15.667Z,43.82
2019-03-24T09:55:15.651Z,43.82
2019-03-24T09:56:15.661Z,43.74
2019-03-24T09:57:15.634Z,43.62
2019-03-24T09:58:15.621Z,43.54
2019-03-24T09:59:15.615Z,43.74
2019-03-24T10:00:15.600Z,43.14
2019-03-24T10:01:15.610Z,43.44
2019-03-24T10:02:15.591Z,42.94
2019-03-24T10:03:15.573Z,43.34
2019-03-24T10:04:15.555Z,42.44
2019-03-24T10:05:15.545Z,42.24
2019-03-24T10:06:15.555Z,42.24
2019-03-24T10:07:15.526Z,42.03
2019-03-24T10:08:15.517Z,42.44
2019-03-24T10:09:15.506Z,42.44
2019-03-24T10:10:15.493Z,42.13
2019-03-24T10:11:15.503Z,42.13
2019-03-24T10:12:15.473Z,42.24
2019-03-24T10:13:15.462Z,42.94
2019-03-24T10:14:15.449Z,42.21
2019-03-24T10:15:15.441Z,41.91
2019-03-24T10:16:15.456Z,41.89
2019-03-24T10:17:15.419Z,41.69
2019-03-24T10:18:15.408Z,41.77
2019-03-24T10:19:15.409Z,40.87
2019-03-24T10:20:15.397Z,40.55
2019-03-24T10:21:15.401Z,40.05
2019-03-24T10:22:15.365Z,39.35
2019-03-24T10:23:15.361Z,40.23
2019-03-24T10:24:15.348Z,39.53
2019-03-24T10:25:15.333Z,39.63
2019-03-24T10:26:15.343Z,38.81
2019-03-24T10:27:15.314Z,38.91
2019-03-24T10:28:15.309Z,38.51
2019-03-24T10:29:15.314Z,38.51
2019-03-24T10:30:15.290Z,37.61
2019-03-24T10:31:15.285Z,37.21
2019-03-24T10:32:15.263Z,37.49
2019-03-24T10:33:15.251Z,37.49
2019-03-24T10:34:15.237Z,37.70
2019-03-24T10:35:15.234Z,38.09
2019-03-24T10:36:15.238Z,37.68
2019-03-24T10:37:15.207Z,36.88
2019-03-24T10:38:15.202Z,37.27
2019-03-24T10:39:15.200Z,37.27
2019-03-24T10:40:15.173Z,36.98
2019-03-24T10:41:15.180Z,37.18
2019-03-24T10:42:15.159Z,36.38
2019-03-24T10:43:15.147Z,36.58
2019-03-24T10:44:15.134Z,36.06
2019-03-24T10:45:15.132Z,36.47
2019-03-24T10:46:15.138Z,36.26
2019-03-24T10:47:15.105Z,36.06
2019-03-24T10:48:15.091Z,35.86
2019-03-24T10:49:24.393Z,36.06
2019-03-24T10:50:16.085Z,35.86
2019-03-24T10:51:15.091Z,35.56
2019-03-24T10:52:15.050Z,36.06
2019-03-24T10:53:15.040Z,35.36
2019-03-24T10:54:15.028Z,35.36
2019-03-24T10:55:15.017Z,35.56
2019-03-24T10:56:15.004Z,35.66
2019-03-24T10:57:15.018Z,35.36
2019-03-24T10:58:14.987Z,35.96
2019-03-24T10:59:15.002Z,35.76
2019-03-24T11:00:14.973Z,35.36
2019-03-24T11:01:14.952Z,36.06
2019-03-24T11:02:14.971Z,35.66
2019-03-24T11:03:14.964Z,35.96
2019-03-24T11:04:15.966Z,36.16
2019-03-24T11:05:14.914Z,34.66
2019-03-24T11:06:14.903Z,34.86
2019-03-24T11:07:14.905Z,34.66
2019-03-24T11:08:14.888Z,35.16
2019-03-24T11:09:14.871Z,35.26
2019-03-24T11:10:14.861Z,35.06
2019-03-24T11:11:14.849Z,35.06
2019-03-24T11:12:14.863Z,35.26
2019-03-24T11:13:14.827Z,35.16
2019-03-24T11:14:14.821Z,35.16
2019-03-24T11:15:14.818Z,35.16
2019-03-24T11:16:14.797Z,35.16
2019-03-24T11:17:14.799Z,35.06
2019-03-24T11:18:14.771Z,35.26
2019-03-24T11:19:14.766Z,35.26
2019-03-24T11:20:14.752Z,34.76
2019-03-24T11:21:14.757Z,35.36
2019-03-24T11:22:14.747Z,34.96
2019-03-24T11:23:14.723Z,35.26
2019-03-24T11:24:14.710Z,35.36
2019-03-24T11:25:14.704Z,35.36
2019-03-24T11:26:14.693Z,35.46
2019-03-24T11:27:14.697Z,35.18
2019-03-24T11:28:14.672Z,34.68
2019-03-24T11:29:14.658Z,35.98
2019-03-24T11:30:14.650Z,35.28
2019-03-24T11:31:14.643Z,35.78
2019-03-24T11:32:14.654Z,35.39
2019-03-24T11:33:14.623Z,35.80
2019-03-24T11:34:14.617Z,36.10
2019-03-24T11:35:14.597Z,36.19
2019-03-24T11:36:14.588Z,35.39
2019-03-24T11:37:14.594Z,35.61
2019-03-24T11:38:14.567Z,35.99
2019-03-24T11:39:14.560Z,36.31
2019-03-24T11:40:14.551Z,36.41
2019-03-24T11:41:14.542Z,36.71
2019-03-24T11:42:14.540Z,40.71
2019-03-24T11:43:14.507Z,39.41
2019-03-24T11:44:14.502Z,39.01
2019-03-24T11:45:14.491Z,39.22
2019-03-24T11:46:14.477Z,39.91
2019-03-24T11:47:14.491Z,39.31
2019-03-24T11:48:14.459Z,40.01
2019-03-24T11:49:14.453Z,40.11
2019-03-24T11:50:14.441Z,39.81
2019-03-24T11:51:14.430Z,40.01
2019-03-24T11:52:14.441Z,39.53
2019-03-24T11:53:14.436Z,40.33
2019-03-24T11:54:14.395Z,40.73
2019-03-24T11:55:14.382Z,40.93
2019-03-24T11:56:14.378Z,40.63
2019-03-24T11:57:14.380Z,41.03
2019-03-24T11:58:14.435Z,41.63
2019-03-24T11:59:14.348Z,41.63
2019-03-24T12:00:14.333Z,40.83
2019-03-24T12:01:14.322Z,41.43
2019-03-24T12:02:14.337Z,41.53
2019-03-24T12:03:14.302Z,41.83
2019-03-24T12:04:14.303Z,41.93
2019-03-24T12:05:14.435Z,41.21
2019-03-24T12:06:15.038Z,40.73
2019-03-24T12:07:14.273Z,39.43
2019-03-24T12:08:14.247Z,40.13
2019-03-24T12:09:14.242Z,40.73
2019-03-24T12:10:14.229Z,40.23
2019-03-24T12:11:14.214Z,39.81
2019-03-24T12:12:14.276Z,39.81
2019-03-24T12:13:14.198Z,40.01
2019-03-24T12:14:14.185Z,39.91
2019-03-24T12:15:14.174Z,41.52
2019-03-24T12:16:14.166Z,40.31
2019-03-24T12:17:14.171Z,41.61
2019-03-24T12:18:15.791Z,42.61
2019-03-24T12:19:14.153Z,44.51
2019-03-24T12:20:14.123Z,45.12
2019-03-24T12:21:14.118Z,45.42
2019-03-24T12:22:14.117Z,45.01
2019-03-24T12:23:14.091Z,44.71
2019-03-24T12:24:14.090Z,45.21
2019-03-24T12:25:14.083Z,44.09
2019-03-24T12:26:14.061Z,44.49
2019-03-24T12:27:14.071Z,43.49
2019-03-24T12:28:14.061Z,44.79
2019-03-24T12:29:14.024Z,43.79
2019-03-24T12:30:14.017Z,41.80
2019-03-24T12:31:14.059Z,41.58
2019-03-24T12:32:15.602Z,41.47
2019-03-24T12:33:13.993Z,41.97
2019-03-24T12:34:13.983Z,41.47
2019-03-24T12:35:13.995Z,41.08
2019-03-24T12:36:13.959Z,40.58
2019-03-24T12:37:14.031Z,40.58
2019-03-24T12:38:13.931Z,40.58
2019-03-24T12:39:14.134Z,40.78
2019-03-24T12:40:13.960Z,41.47
2019-03-24T12:41:13.988Z,40.67
2019-03-24T12:42:13.930Z,41.08
2019-03-24T12:43:19.394Z,40.58
2019-03-24T12:44:14.870Z,40.97
2019-03-24T12:45:13.862Z,41.08
2019-03-24T12:46:13.868Z,40.58
2019-03-24T12:47:13.869Z,40.67
2019-03-24T12:48:13.886Z,40.28
2019-03-24T12:49:13.819Z,40.37
2019-03-24T12:50:13.809Z,40.67
2019-03-24T12:51:13.798Z,40.78
2019-03-24T12:52:13.783Z,40.58